sensor_id;sensor_type;location;lat;lon;timestamp;temperature;humidity
77523;SHT31;66637;-29.628;-49.938;2023-04-03T00:00:20;22.76;65.75
77523;SHT31;66637;-29.628;-49.938;2023-04-03T00:02:50;22.72;65.77
77523;SHT31;66637;-29.628;-49.938;2023-04-03T00:05:21;22.73;65.30
77523;SHT31;66637;-29.628;-49.938;2023-04-03T00:07:52;22.73;65.23
77523;SHT31;66637;-29.628;-49.938;2023-04-03T00:10:23;22.70;65.11
77523;SHT31;66637;-29.628;-49.938;2023-04-03T00:12:54;22.73;64.44
77523;SHT31;66637;-29.628;-49.938;2023-04-03T00:15:25;22.73;64.94
77523;SHT31;66637;-29.628;-49.938;2023-04-03T00:17:56;22.69;64.97
77523;SHT31;66637;-29.628;-49.938;2023-04-03T00:20:27;22.66;64.98
77523;SHT31;66637;-29.628;-49.938;2023-04-03T00:22:58;22.64;64.71
77523;SHT31;66637;-29.628;-49.938;2023-04-03T00:25:29;22.64;64.84
77523;SHT31;66637;-29.628;-49.938;2023-04-03T00:28:00;22.28;64.09
77523;SHT31;66637;-29.628;-49.938;2023-04-03T00:30:31;21.95;65.01
77523;SHT31;66637;-29.628;-49.938;2023-04-03T00:33:02;21.67;66.50
77523;SHT31;66637;-29.628;-49.938;2023-04-03T00:35:34;21.55;66.89
77523;SHT31;66637;-29.628;-49.938;2023-04-03T00:38:05;21.44;67.33
77523;SHT31;66637;-29.628;-49.938;2023-04-03T00:40:39;21.34;67.46
77523;SHT31;66637;-29.628;-49.938;2023-04-03T00:43:14;21.31;68.58
77523;SHT31;66637;-29.628;-49.938;2023-04-03T00:45:47;21.31;68.07
77523;SHT31;66637;-29.628;-49.938;2023-04-03T00:48:34;21.33;67.95
77523;SHT31;66637;-29.628;-49.938;2023-04-03T00:51:08;21.20;67.95
77523;SHT31;66637;-29.628;-49.938;2023-04-03T00:53:53;21.04;68.47
77523;SHT31;66637;-29.628;-49.938;2023-04-03T00:56:27;21.00;69.49
77523;SHT31;66637;-29.628;-49.938;2023-04-03T00:59:06;21.04;70.23
77523;SHT31;66637;-29.628;-49.938;2023-04-03T01:01:38;21.09;69.79
77523;SHT31;66637;-29.628;-49.938;2023-04-03T01:04:33;21.16;69.70
77523;SHT31;66637;-29.628;-49.938;2023-04-03T01:07:10;21.11;69.52
77523;SHT31;66637;-29.628;-49.938;2023-04-03T01:09:42;21.10;69.38
77523;SHT31;66637;-29.628;-49.938;2023-04-03T01:12:15;21.00;70.13
77523;SHT31;66637;-29.628;-49.938;2023-04-03T01:14:51;21.09;69.79
77523;SHT31;66637;-29.628;-49.938;2023-04-03T01:17:39;21.04;70.33
77523;SHT31;66637;-29.628;-49.938;2023-04-03T01:23:32;21.03;70.92
77523;SHT31;66637;-29.628;-49.938;2023-04-03T01:26:06;20.97;70.59
77523;SHT31;66637;-29.628;-49.938;2023-04-03T01:28:37;20.97;71.06
77523;SHT31;66637;-29.628;-49.938;2023-04-03T01:34:04;20.99;71.08
77523;SHT31;66637;-29.628;-49.938;2023-04-03T01:36:36;21.04;70.89
77523;SHT31;66637;-29.628;-49.938;2023-04-03T01:39:06;21.03;70.79
77523;SHT31;66637;-29.628;-49.938;2023-04-03T01:41:38;21.06;71.13
77523;SHT31;66637;-29.628;-49.938;2023-04-03T01:44:17;21.03;71.04
77523;SHT31;66637;-29.628;-49.938;2023-04-03T01:46:47;20.99;71.57
77523;SHT31;66637;-29.628;-49.938;2023-04-03T01:49:17;20.96;71.76
77523;SHT31;66637;-29.628;-49.938;2023-04-03T01:51:48;20.95;71.96
77523;SHT31;66637;-29.628;-49.938;2023-04-03T01:54:19;21.02;72.00
77523;SHT31;66637;-29.628;-49.938;2023-04-03T01:56:51;21.00;72.02
77523;SHT31;66637;-29.628;-49.938;2023-04-03T01:59:23;21.07;71.68
77523;SHT31;66637;-29.628;-49.938;2023-04-03T02:01:53;21.04;71.64
77523;SHT31;66637;-29.628;-49.938;2023-04-03T02:04:23;20.96;71.83
77523;SHT31;66637;-29.628;-49.938;2023-04-03T02:06:54;20.97;71.76
77523;SHT31;66637;-29.628;-49.938;2023-04-03T02:09:25;20.97;72.01
77523;SHT31;66637;-29.628;-49.938;2023-04-03T02:11:56;21.00;72.41
77523;SHT31;66637;-29.628;-49.938;2023-04-03T02:14:26;21.03;72.15
77523;SHT31;66637;-29.628;-49.938;2023-04-03T02:16:57;21.07;72.18
77523;SHT31;66637;-29.628;-49.938;2023-04-03T02:19:28;21.09;72.13
77523;SHT31;66637;-29.628;-49.938;2023-04-03T02:21:58;21.14;72.13
77523;SHT31;66637;-29.628;-49.938;2023-04-03T02:24:30;21.10;71.89
77523;SHT31;66637;-29.628;-49.938;2023-04-03T02:27:00;21.10;71.74
77523;SHT31;66637;-29.628;-49.938;2023-04-03T02:29:32;21.07;71.88
77523;SHT31;66637;-29.628;-49.938;2023-04-03T02:32:02;21.03;72.11
77523;SHT31;66637;-29.628;-49.938;2023-04-03T02:34:33;21.03;72.14
77523;SHT31;66637;-29.628;-49.938;2023-04-03T02:37:05;21.09;71.98
77523;SHT31;66637;-29.628;-49.938;2023-04-03T02:39:36;21.09;71.91
77523;SHT31;66637;-29.628;-49.938;2023-04-03T02:42:07;21.10;72.06
77523;SHT31;66637;-29.628;-49.938;2023-04-03T02:44:37;21.10;72.11
77523;SHT31;66637;-29.628;-49.938;2023-04-03T02:47:09;21.06;72.26
77523;SHT31;66637;-29.628;-49.938;2023-04-03T02:49:40;21.03;72.15
77523;SHT31;66637;-29.628;-49.938;2023-04-03T02:52:11;20.97;72.24
77523;SHT31;66637;-29.628;-49.938;2023-04-03T02:54:41;20.95;72.22
77523;SHT31;66637;-29.628;-49.938;2023-04-03T02:57:12;20.87;72.41
77523;SHT31;66637;-29.628;-49.938;2023-04-03T02:59:43;20.77;72.79
77523;SHT31;66637;-29.628;-49.938;2023-04-03T03:02:14;20.71;72.86
77523;SHT31;66637;-29.628;-49.938;2023-04-03T03:04:44;20.68;72.78
77523;SHT31;66637;-29.628;-49.938;2023-04-03T03:07:15;20.62;72.97
77523;SHT31;66637;-29.628;-49.938;2023-04-03T03:09:47;20.51;73.39
77523;SHT31;66637;-29.628;-49.938;2023-04-03T03:12:17;20.48;73.54
77523;SHT31;66637;-29.628;-49.938;2023-04-03T03:14:52;20.45;73.57
77523;SHT31;66637;-29.628;-49.938;2023-04-03T03:17:22;20.38;73.68
77523;SHT31;66637;-29.628;-49.938;2023-04-03T03:19:52;20.26;74.01
77523;SHT31;66637;-29.628;-49.938;2023-04-03T03:22:23;20.24;73.85
77523;SHT31;66637;-29.628;-49.938;2023-04-03T03:24:54;20.20;73.86
77523;SHT31;66637;-29.628;-49.938;2023-04-03T03:27:25;20.17;73.75
77523;SHT31;66637;-29.628;-49.938;2023-04-03T03:29:56;20.15;73.55
77523;SHT31;66637;-29.628;-49.938;2023-04-03T03:32:27;20.15;73.27
77523;SHT31;66637;-29.628;-49.938;2023-04-03T03:34:58;20.13;73.40
77523;SHT31;66637;-29.628;-49.938;2023-04-03T03:37:30;20.04;73.60
77523;SHT31;66637;-29.628;-49.938;2023-04-03T03:40:00;19.94;73.77
77523;SHT31;66637;-29.628;-49.938;2023-04-03T03:42:31;19.87;73.89
77523;SHT31;66637;-29.628;-49.938;2023-04-03T03:45:02;19.81;73.88
77523;SHT31;66637;-29.628;-49.938;2023-04-03T03:47:33;19.75;73.93
77523;SHT31;66637;-29.628;-49.938;2023-04-03T03:50:05;19.66;74.19
77523;SHT31;66637;-29.628;-49.938;2023-04-03T03:52:35;19.64;74.12
77523;SHT31;66637;-29.628;-49.938;2023-04-03T03:55:07;19.60;74.21
77523;SHT31;66637;-29.628;-49.938;2023-04-03T03:57:39;19.59;74.12
77523;SHT31;66637;-29.628;-49.938;2023-04-03T04:00:09;19.59;74.06
77523;SHT31;66637;-29.628;-49.938;2023-04-03T04:02:44;19.57;73.68
77523;SHT31;66637;-29.628;-49.938;2023-04-03T04:05:18;19.62;73.40
77523;SHT31;66637;-29.628;-49.938;2023-04-03T04:07:49;19.60;73.28
77523;SHT31;66637;-29.628;-49.938;2023-04-03T04:10:21;19.57;73.23
77523;SHT31;66637;-29.628;-49.938;2023-04-03T04:12:52;19.54;73.27
77523;SHT31;66637;-29.628;-49.938;2023-04-03T04:15:28;19.56;72.94
77523;SHT31;66637;-29.628;-49.938;2023-04-03T04:17:58;19.59;73.07
77523;SHT31;66637;-29.628;-49.938;2023-04-03T04:20:29;19.50;73.05
77523;SHT31;66637;-29.628;-49.938;2023-04-03T04:22:59;19.49;73.10
77523;SHT31;66637;-29.628;-49.938;2023-04-03T04:25:31;19.50;73.12
77523;SHT31;66637;-29.628;-49.938;2023-04-03T04:28:02;19.54;73.08
77523;SHT31;66637;-29.628;-49.938;2023-04-03T04:30:33;19.57;72.77
77523;SHT31;66637;-29.628;-49.938;2023-04-03T04:33:05;19.59;72.62
77523;SHT31;66637;-29.628;-49.938;2023-04-03T04:35:37;19.62;72.32
77523;SHT31;66637;-29.628;-49.938;2023-04-03T04:38:08;19.60;72.35
77523;SHT31;66637;-29.628;-49.938;2023-04-03T04:40:39;19.64;72.42
77523;SHT31;66637;-29.628;-49.938;2023-04-03T04:43:11;19.66;72.34
77523;SHT31;66637;-29.628;-49.938;2023-04-03T04:45:47;19.60;72.56
77523;SHT31;66637;-29.628;-49.938;2023-04-03T04:48:19;19.57;72.39
77523;SHT31;66637;-29.628;-49.938;2023-04-03T04:50:51;19.57;72.56
77523;SHT31;66637;-29.628;-49.938;2023-04-03T04:53:22;19.50;72.65
77523;SHT31;66637;-29.628;-49.938;2023-04-03T04:55:53;19.53;72.54
77523;SHT31;66637;-29.628;-49.938;2023-04-03T04:58:25;19.50;72.71
77523;SHT31;66637;-29.628;-49.938;2023-04-03T05:01:15;19.49;72.85
77523;SHT31;66637;-29.628;-49.938;2023-04-03T05:04:02;19.46;72.71
77523;SHT31;66637;-29.628;-49.938;2023-04-03T05:06:34;19.46;72.59
77523;SHT31;66637;-29.628;-49.938;2023-04-03T05:09:08;19.40;72.86
77523;SHT31;66637;-29.628;-49.938;2023-04-03T05:11:43;19.43;72.79
77523;SHT31;66637;-29.628;-49.938;2023-04-03T05:14:16;19.40;72.88
77523;SHT31;66637;-29.628;-49.938;2023-04-03T05:16:48;19.39;72.90
77523;SHT31;66637;-29.628;-49.938;2023-04-03T05:19:25;19.36;72.74
77523;SHT31;66637;-29.628;-49.938;2023-04-03T05:21:58;19.32;72.86
77523;SHT31;66637;-29.628;-49.938;2023-04-03T05:24:30;19.32;72.73
77523;SHT31;66637;-29.628;-49.938;2023-04-03T05:27:01;19.33;72.50
77523;SHT31;66637;-29.628;-49.938;2023-04-03T05:29:35;19.36;72.13
77523;SHT31;66637;-29.628;-49.938;2023-04-03T05:32:06;19.42;71.74
77523;SHT31;66637;-29.628;-49.938;2023-04-03T05:34:36;19.45;71.61
77523;SHT31;66637;-29.628;-49.938;2023-04-03T05:37:07;19.47;71.35
77523;SHT31;66637;-29.628;-49.938;2023-04-03T05:39:38;19.46;71.30
77523;SHT31;66637;-29.628;-49.938;2023-04-03T05:42:12;19.52;70.91
77523;SHT31;66637;-29.628;-49.938;2023-04-03T05:44:43;19.53;70.83
77523;SHT31;66637;-29.628;-49.938;2023-04-03T05:47:16;19.52;70.74
77523;SHT31;66637;-29.628;-49.938;2023-04-03T05:49:46;19.52;70.73
77523;SHT31;66637;-29.628;-49.938;2023-04-03T05:52:26;19.56;70.48
77523;SHT31;66637;-29.628;-49.938;2023-04-03T05:54:57;19.56;70.28
77523;SHT31;66637;-29.628;-49.938;2023-04-03T05:57:30;19.54;70.26
77523;SHT31;66637;-29.628;-49.938;2023-04-03T06:00:06;19.57;70.36
77523;SHT31;66637;-29.628;-49.938;2023-04-03T06:02:40;19.57;70.21
77523;SHT31;66637;-29.628;-49.938;2023-04-03T06:05:18;19.60;70.12
77523;SHT31;66637;-29.628;-49.938;2023-04-03T06:07:48;19.59;70.10
77523;SHT31;66637;-29.628;-49.938;2023-04-03T06:10:21;19.57;70.33
77523;SHT31;66637;-29.628;-49.938;2023-04-03T06:12:51;19.53;70.23
77523;SHT31;66637;-29.628;-49.938;2023-04-03T06:15:23;19.57;70.23
77523;SHT31;66637;-29.628;-49.938;2023-04-03T06:17:54;19.60;70.02
77523;SHT31;66637;-29.628;-49.938;2023-04-03T06:20:25;19.62;69.81
77523;SHT31;66637;-29.628;-49.938;2023-04-03T06:22:57;19.67;69.70
77523;SHT31;66637;-29.628;-49.938;2023-04-03T06:25:28;19.70;69.46
77523;SHT31;66637;-29.628;-49.938;2023-04-03T06:27:59;19.74;69.46
77523;SHT31;66637;-29.628;-49.938;2023-04-03T06:30:30;19.77;69.36
77523;SHT31;66637;-29.628;-49.938;2023-04-03T06:33:00;19.78;69.10
77523;SHT31;66637;-29.628;-49.938;2023-04-03T06:35:32;19.75;69.48
77523;SHT31;66637;-29.628;-49.938;2023-04-03T06:38:04;19.77;69.43
77523;SHT31;66637;-29.628;-49.938;2023-04-03T06:40:39;19.73;69.55
77523;SHT31;66637;-29.628;-49.938;2023-04-03T06:43:09;19.74;69.60
77523;SHT31;66637;-29.628;-49.938;2023-04-03T06:45:40;19.73;69.69
77523;SHT31;66637;-29.628;-49.938;2023-04-03T06:48:10;19.71;69.69
77523;SHT31;66637;-29.628;-49.938;2023-04-03T06:50:42;19.69;69.95
77523;SHT31;66637;-29.628;-49.938;2023-04-03T06:53:14;19.66;70.08
77523;SHT31;66637;-29.628;-49.938;2023-04-03T06:55:47;19.64;70.15
77523;SHT31;66637;-29.628;-49.938;2023-04-03T06:58:18;19.66;70.21
77523;SHT31;66637;-29.628;-49.938;2023-04-03T07:00:50;19.60;70.41
77523;SHT31;66637;-29.628;-49.938;2023-04-03T07:03:22;19.62;70.48
77523;SHT31;66637;-29.628;-49.938;2023-04-03T07:05:53;19.63;70.29
77523;SHT31;66637;-29.628;-49.938;2023-04-03T07:08:24;19.67;70.27
77523;SHT31;66637;-29.628;-49.938;2023-04-03T07:10:56;19.66;70.41
77523;SHT31;66637;-29.628;-49.938;2023-04-03T07:13:26;19.60;70.57
77523;SHT31;66637;-29.628;-49.938;2023-04-03T07:15:57;19.60;70.82
77523;SHT31;66637;-29.628;-49.938;2023-04-03T07:18:28;19.60;71.03
77523;SHT31;66637;-29.628;-49.938;2023-04-03T07:20:59;19.62;71.00
77523;SHT31;66637;-29.628;-49.938;2023-04-03T07:23:32;19.59;71.12
77523;SHT31;66637;-29.628;-49.938;2023-04-03T07:26:03;19.62;71.30
77523;SHT31;66637;-29.628;-49.938;2023-04-03T07:28:35;19.60;71.40
77523;SHT31;66637;-29.628;-49.938;2023-04-03T07:31:07;19.56;71.62
77523;SHT31;66637;-29.628;-49.938;2023-04-03T07:33:42;19.59;71.69
77523;SHT31;66637;-29.628;-49.938;2023-04-03T07:36:19;19.59;71.96
77523;SHT31;66637;-29.628;-49.938;2023-04-03T07:38:50;19.60;71.98
77523;SHT31;66637;-29.628;-49.938;2023-04-03T07:41:22;19.59;72.06
77523;SHT31;66637;-29.628;-49.938;2023-04-03T07:43:53;19.53;72.35
77523;SHT31;66637;-29.628;-49.938;2023-04-03T07:46:25;19.52;72.37
77523;SHT31;66637;-29.628;-49.938;2023-04-03T07:48:56;19.53;72.36
77523;SHT31;66637;-29.628;-49.938;2023-04-03T07:51:27;19.53;72.45
77523;SHT31;66637;-29.628;-49.938;2023-04-03T07:53:59;19.54;72.55
77523;SHT31;66637;-29.628;-49.938;2023-04-03T07:56:30;19.52;72.90
77523;SHT31;66637;-29.628;-49.938;2023-04-03T07:59:02;19.49;73.16
77523;SHT31;66637;-29.628;-49.938;2023-04-03T08:01:33;19.49;73.23
77523;SHT31;66637;-29.628;-49.938;2023-04-03T08:04:04;19.50;73.17
77523;SHT31;66637;-29.628;-49.938;2023-04-03T08:06:36;19.49;73.34
77523;SHT31;66637;-29.628;-49.938;2023-04-03T08:09:15;19.49;73.60
77523;SHT31;66637;-29.628;-49.938;2023-04-03T08:11:46;19.46;73.48
77523;SHT31;66637;-29.628;-49.938;2023-04-03T08:14:16;19.42;73.73
77523;SHT31;66637;-29.628;-49.938;2023-04-03T08:16:48;19.45;73.98
77523;SHT31;66637;-29.628;-49.938;2023-04-03T08:19:19;19.43;73.75
77523;SHT31;66637;-29.628;-49.938;2023-04-03T08:21:54;19.42;73.93
77523;SHT31;66637;-29.628;-49.938;2023-04-03T08:24:27;19.43;73.82
77523;SHT31;66637;-29.628;-49.938;2023-04-03T08:26:58;19.40;73.86
77523;SHT31;66637;-29.628;-49.938;2023-04-03T08:29:28;19.37;73.80
77523;SHT31;66637;-29.628;-49.938;2023-04-03T08:32:01;19.32;73.90
77523;SHT31;66637;-29.628;-49.938;2023-04-03T08:34:31;19.32;74.13
77523;SHT31;66637;-29.628;-49.938;2023-04-03T08:37:05;19.39;74.00
77523;SHT31;66637;-29.628;-49.938;2023-04-03T08:39:36;19.39;73.87
77523;SHT31;66637;-29.628;-49.938;2023-04-03T08:45:45;19.40;74.10
77523;SHT31;66637;-29.628;-49.938;2023-04-03T08:48:33;19.36;74.31
77523;SHT31;66637;-29.628;-49.938;2023-04-03T08:51:16;19.33;74.35
77523;SHT31;66637;-29.628;-49.938;2023-04-03T08:54:15;19.32;74.59
77523;SHT31;66637;-29.628;-49.938;2023-04-03T08:56:50;19.24;74.40
77523;SHT31;66637;-29.628;-49.938;2023-04-03T08:59:29;19.23;74.65
77523;SHT31;66637;-29.628;-49.938;2023-04-03T09:02:21;19.24;74.69
77523;SHT31;66637;-29.628;-49.938;2023-04-03T09:04:53;19.20;74.52
77523;SHT31;66637;-29.628;-49.938;2023-04-03T09:07:43;19.26;74.87
77523;SHT31;66637;-29.628;-49.938;2023-04-03T09:10:24;19.22;74.72
77523;SHT31;66637;-29.628;-49.938;2023-04-03T09:13:06;19.18;75.08
77523;SHT31;66637;-29.628;-49.938;2023-04-03T09:15:39;19.18;74.77
77523;SHT31;66637;-29.628;-49.938;2023-04-03T09:18:16;19.16;74.99
77523;SHT31;66637;-29.628;-49.938;2023-04-03T09:23:44;19.20;74.84
77523;SHT31;66637;-29.628;-49.938;2023-04-03T09:26:24;19.16;74.98
77523;SHT31;66637;-29.628;-49.938;2023-04-03T09:29:04;19.08;74.99
77523;SHT31;66637;-29.628;-49.938;2023-04-03T09:31:39;19.09;75.17
77523;SHT31;66637;-29.628;-49.938;2023-04-03T09:34:32;19.10;75.28
77523;SHT31;66637;-29.628;-49.938;2023-04-03T09:37:05;19.08;75.08
77523;SHT31;66637;-29.628;-49.938;2023-04-03T09:39:51;19.12;75.21
77523;SHT31;66637;-29.628;-49.938;2023-04-03T09:42:25;19.15;74.95
77523;SHT31;66637;-29.628;-49.938;2023-04-03T09:45:03;19.16;75.17
77523;SHT31;66637;-29.628;-49.938;2023-04-03T09:47:36;19.19;75.03
77523;SHT31;66637;-29.628;-49.938;2023-04-03T09:52:49;19.34;74.71
77523;SHT31;66637;-29.628;-49.938;2023-04-03T09:55:26;19.39;74.75
77523;SHT31;66637;-29.628;-49.938;2023-04-03T09:58:04;19.46;74.60
77523;SHT31;66637;-29.628;-49.938;2023-04-03T10:00:40;19.49;74.56
77523;SHT31;66637;-29.628;-49.938;2023-04-03T10:06:03;19.67;74.08
77523;SHT31;66637;-29.628;-49.938;2023-04-03T10:08:35;19.71;73.92
77523;SHT31;66637;-29.628;-49.938;2023-04-03T10:11:16;19.81;74.00
77523;SHT31;66637;-29.628;-49.938;2023-04-03T10:13:56;19.87;73.76
77523;SHT31;66637;-29.628;-49.938;2023-04-03T10:16:48;19.97;73.71
77523;SHT31;66637;-29.628;-49.938;2023-04-03T10:19:45;20.04;73.52
77523;SHT31;66637;-29.628;-49.938;2023-04-03T10:25:35;20.15;73.35
77523;SHT31;66637;-29.628;-49.938;2023-04-03T10:28:35;20.29;73.42
77523;SHT31;66637;-29.628;-49.938;2023-04-03T10:37:02;20.62;72.54
77523;SHT31;66637;-29.628;-49.938;2023-04-03T10:39:37;20.76;72.05
77523;SHT31;66637;-29.628;-49.938;2023-04-03T10:48:16;23.04;66.50
77523;SHT31;66637;-29.628;-49.938;2023-04-03T10:54:06;27.97;51.56
77523;SHT31;66637;-29.628;-49.938;2023-04-03T10:56:41;28.47;48.16
77523;SHT31;66637;-29.628;-49.938;2023-04-03T10:59:39;28.67;49.11
77523;SHT31;66637;-29.628;-49.938;2023-04-03T11:02:28;28.98;48.50
77523;SHT31;66637;-29.628;-49.938;2023-04-03T11:05:31;28.16;50.45
77523;SHT31;66637;-29.628;-49.938;2023-04-03T11:08:27;26.84;53.90
77523;SHT31;66637;-29.628;-49.938;2023-04-03T11:11:08;26.47;54.79
77523;SHT31;66637;-29.628;-49.938;2023-04-03T11:16:39;26.19;55.52
77523;SHT31;66637;-29.628;-49.938;2023-04-03T11:19:34;26.32;53.59
77523;SHT31;66637;-29.628;-49.938;2023-04-03T11:22:12;26.41;54.69
77523;SHT31;66637;-29.628;-49.938;2023-04-03T11:24:51;26.60;52.40
77523;SHT31;66637;-29.628;-49.938;2023-04-03T11:27:25;26.88;53.19
77523;SHT31;66637;-29.628;-49.938;2023-04-03T11:30:02;26.83;49.24
77523;SHT31;66637;-29.628;-49.938;2023-04-03T11:35:27;26.94;48.29
77523;SHT31;66637;-29.628;-49.938;2023-04-03T11:38:01;26.98;47.49
77523;SHT31;66637;-29.628;-49.938;2023-04-03T11:40:36;27.14;48.10
77523;SHT31;66637;-29.628;-49.938;2023-04-03T11:43:22;27.45;48.36
77523;SHT31;66637;-29.628;-49.938;2023-04-03T11:46:07;27.65;46.53
77523;SHT31;66637;-29.628;-49.938;2023-04-03T11:48:44;28.11;47.91
77523;SHT31;66637;-29.628;-49.938;2023-04-03T11:51:37;27.83;45.82
77523;SHT31;66637;-29.628;-49.938;2023-04-03T11:58:17;28.39;47.36
77523;SHT31;66637;-29.628;-49.938;2023-04-03T12:00:46;28.54;45.15
77523;SHT31;66637;-29.628;-49.938;2023-04-03T12:08:50;27.86;44.44
77523;SHT31;66637;-29.628;-49.938;2023-04-03T12:11:30;28.33;45.81
77523;SHT31;66637;-29.628;-49.938;2023-04-03T12:14:02;27.96;44.82
77523;SHT31;66637;-29.628;-49.938;2023-04-03T12:24:38;28.33;48.78
77523;SHT31;66637;-29.628;-49.938;2023-04-03T12:30:26;27.82;51.92
77523;SHT31;66637;-29.628;-49.938;2023-04-03T12:33:22;27.89;51.73
77523;SHT31;66637;-29.628;-49.938;2023-04-03T12:35:57;27.72;51.56
77523;SHT31;66637;-29.628;-49.938;2023-04-03T12:38:44;27.53;51.55
77523;SHT31;66637;-29.628;-49.938;2023-04-03T12:41:53;27.49;53.38
77523;SHT31;66637;-29.628;-49.938;2023-04-03T12:47:36;27.52;53.78
77523;SHT31;66637;-29.628;-49.938;2023-04-03T12:50:23;26.92;54.93
77523;SHT31;66637;-29.628;-49.938;2023-04-03T12:52:57;27.16;54.49
77523;SHT31;66637;-29.628;-49.938;2023-04-03T12:55:32;27.39;54.28
77523;SHT31;66637;-29.628;-49.938;2023-04-03T13:01:13;27.60;54.74
77523;SHT31;66637;-29.628;-49.938;2023-04-03T13:03:48;27.93;53.05
77523;SHT31;66637;-29.628;-49.938;2023-04-03T13:06:23;28.24;52.34
77523;SHT31;66637;-29.628;-49.938;2023-04-03T13:08:59;27.90;53.08
77523;SHT31;66637;-29.628;-49.938;2023-04-03T13:11:36;28.09;52.97
77523;SHT31;66637;-29.628;-49.938;2023-04-03T13:14:22;28.20;52.18
77523;SHT31;66637;-29.628;-49.938;2023-04-03T13:16:57;27.73;53.46
77523;SHT31;66637;-29.628;-49.938;2023-04-03T13:19:30;27.99;54.09
77523;SHT31;66637;-29.628;-49.938;2023-04-03T13:22:02;28.06;53.01
77523;SHT31;66637;-29.628;-49.938;2023-04-03T13:24:37;28.23;52.42
77523;SHT31;66637;-29.628;-49.938;2023-04-03T13:27:14;28.23;53.15
77523;SHT31;66637;-29.628;-49.938;2023-04-03T13:29:51;28.20;52.32
77523;SHT31;66637;-29.628;-49.938;2023-04-03T13:32:25;28.28;52.23
77523;SHT31;66637;-29.628;-49.938;2023-04-03T13:34:58;28.28;52.42
77523;SHT31;66637;-29.628;-49.938;2023-04-03T13:38:02;28.34;53.54
77523;SHT31;66637;-29.628;-49.938;2023-04-03T13:40:32;28.54;52.80
77523;SHT31;66637;-29.628;-49.938;2023-04-03T13:43:21;28.21;53.40
77523;SHT31;66637;-29.628;-49.938;2023-04-03T13:48:48;28.10;53.36
77523;SHT31;66637;-29.628;-49.938;2023-04-03T13:51:26;27.79;53.69
77523;SHT31;66637;-29.628;-49.938;2023-04-03T13:54:12;27.74;53.98
77523;SHT31;66637;-29.628;-49.938;2023-04-03T13:56:43;27.90;53.00
77523;SHT31;66637;-29.628;-49.938;2023-04-03T14:04:20;27.45;52.59
77523;SHT31;66637;-29.628;-49.938;2023-04-03T14:06:52;27.34;53.40
77523;SHT31;66637;-29.628;-49.938;2023-04-03T14:09:25;27.49;52.47
77523;SHT31;66637;-29.628;-49.938;2023-04-03T14:12:02;27.60;49.63
77523;SHT31;66637;-29.628;-49.938;2023-04-03T14:14:36;27.65;52.22
77523;SHT31;66637;-29.628;-49.938;2023-04-03T14:17:19;27.76;51.26
77523;SHT31;66637;-29.628;-49.938;2023-04-03T14:19:54;27.78;49.94
77523;SHT31;66637;-29.628;-49.938;2023-04-03T14:22:32;27.97;51.40
77523;SHT31;66637;-29.628;-49.938;2023-04-03T14:25:05;28.06;50.36
77523;SHT31;66637;-29.628;-49.938;2023-04-03T14:27:45;28.61;50.13
77523;SHT31;66637;-29.628;-49.938;2023-04-03T14:30:23;28.47;48.18
77523;SHT31;66637;-29.628;-49.938;2023-04-03T14:32:54;28.76;47.09
77523;SHT31;66637;-29.628;-49.938;2023-04-03T14:35:26;28.55;48.34
77523;SHT31;66637;-29.628;-49.938;2023-04-03T14:37:59;28.87;45.73
77523;SHT31;66637;-29.628;-49.938;2023-04-03T14:40:30;28.79;46.27
77523;SHT31;66637;-29.628;-49.938;2023-04-03T14:43:03;28.72;48.76
77523;SHT31;66637;-29.628;-49.938;2023-04-03T14:45:33;28.65;46.96
77523;SHT31;66637;-29.628;-49.938;2023-04-03T14:48:11;28.44;48.41
77523;SHT31;66637;-29.628;-49.938;2023-04-03T14:50:47;28.55;47.47
77523;SHT31;66637;-29.628;-49.938;2023-04-03T14:53:34;28.60;46.89
77523;SHT31;66637;-29.628;-49.938;2023-04-03T14:56:22;28.76;48.65
77523;SHT31;66637;-29.628;-49.938;2023-04-03T14:58:58;29.14;48.28
77523;SHT31;66637;-29.628;-49.938;2023-04-03T15:01:31;28.95;47.45
77523;SHT31;66637;-29.628;-49.938;2023-04-03T15:04:20;28.88;47.39
77523;SHT31;66637;-29.628;-49.938;2023-04-03T15:06:51;28.51;47.83
77523;SHT31;66637;-29.628;-49.938;2023-04-03T15:09:26;28.58;49.46
77523;SHT31;66637;-29.628;-49.938;2023-04-03T15:11:57;28.61;47.91
77523;SHT31;66637;-29.628;-49.938;2023-04-03T15:14:28;28.48;48.74
77523;SHT31;66637;-29.628;-49.938;2023-04-03T15:17:22;28.45;47.91
77523;SHT31;66637;-29.628;-49.938;2023-04-03T15:19:54;28.47;48.86
77523;SHT31;66637;-29.628;-49.938;2023-04-03T15:22:25;28.62;48.82
77523;SHT31;66637;-29.628;-49.938;2023-04-03T15:24:55;28.82;48.84
77523;SHT31;66637;-29.628;-49.938;2023-04-03T15:27:27;28.74;48.18
77523;SHT31;66637;-29.628;-49.938;2023-04-03T15:29:58;28.65;48.20
77523;SHT31;66637;-29.628;-49.938;2023-04-03T15:32:29;28.62;49.51
77523;SHT31;66637;-29.628;-49.938;2023-04-03T15:34:59;28.65;51.07
77523;SHT31;66637;-29.628;-49.938;2023-04-03T15:37:30;28.50;48.85
77523;SHT31;66637;-29.628;-49.938;2023-04-03T15:40:03;28.75;49.19
77523;SHT31;66637;-29.628;-49.938;2023-04-03T15:42:35;28.84;49.56
77523;SHT31;66637;-29.628;-49.938;2023-04-03T15:45:05;28.75;48.99
77523;SHT31;66637;-29.628;-49.938;2023-04-03T15:47:37;28.45;49.72
77523;SHT31;66637;-29.628;-49.938;2023-04-03T15:50:08;28.18;49.91
77523;SHT31;66637;-29.628;-49.938;2023-04-03T15:52:40;28.31;49.10
77523;SHT31;66637;-29.628;-49.938;2023-04-03T15:55:11;28.57;48.26
77523;SHT31;66637;-29.628;-49.938;2023-04-03T15:57:42;28.60;49.07
77523;SHT31;66637;-29.628;-49.938;2023-04-03T16:00:13;28.81;49.54
77523;SHT31;66637;-29.628;-49.938;2023-04-03T16:02:45;28.79;48.55
77523;SHT31;66637;-29.628;-49.938;2023-04-03T16:05:18;28.74;48.58
77523;SHT31;66637;-29.628;-49.938;2023-04-03T16:07:50;28.81;48.30
77523;SHT31;66637;-29.628;-49.938;2023-04-03T16:10:20;28.68;47.55
77523;SHT31;66637;-29.628;-49.938;2023-04-03T16:12:56;28.68;48.28
77523;SHT31;66637;-29.628;-49.938;2023-04-03T16:15:27;28.85;48.02
77523;SHT31;66637;-29.628;-49.938;2023-04-03T16:18:01;28.75;48.87
77523;SHT31;66637;-29.628;-49.938;2023-04-03T16:20:32;28.65;48.71
77523;SHT31;66637;-29.628;-49.938;2023-04-03T16:23:03;28.64;49.92
77523;SHT31;66637;-29.628;-49.938;2023-04-03T16:25:34;28.82;50.36
77523;SHT31;66637;-29.628;-49.938;2023-04-03T16:28:05;28.79;48.85
77523;SHT31;66637;-29.628;-49.938;2023-04-03T16:30:40;28.79;50.05
77523;SHT31;66637;-29.628;-49.938;2023-04-03T16:33:11;28.75;50.93
77523;SHT31;66637;-29.628;-49.938;2023-04-03T16:35:43;28.64;50.60
77523;SHT31;66637;-29.628;-49.938;2023-04-03T16:38:15;28.65;50.41
77523;SHT31;66637;-29.628;-49.938;2023-04-03T16:40:46;28.50;50.45
77523;SHT31;66637;-29.628;-49.938;2023-04-03T16:43:18;28.40;52.04
77523;SHT31;66637;-29.628;-49.938;2023-04-03T16:45:49;28.30;52.49
77523;SHT31;66637;-29.628;-49.938;2023-04-03T16:48:21;28.24;52.01